Time;durP1;ratioP1;P1;durP2;ratioP2;P2;SDS_P1;SDS_P2;PMS_P1;PMS_P2;Temp;Humidity;BMP_temperature;BMP_pressure;BME280_temperature;BME280_humidity;BME280_pressure;Samples;Min_cycle;Max_cycle;Signal;HPM_P1;HPM_P2
2022/03/28 00:02:21;;;;;;;21.20;13.37;;;9.10;99.90;;;;;;5064325;28;20458;-80
2022/03/28 00:04:47;;;;;;;23.63;14.83;;;9.10;99.90;;;;;;5062977;28;20455;-78
2022/03/28 00:07:15;;;;;;;25.07;14.07;;;9.10;99.90;;;;;;5058938;28;20918;-78
2022/03/28 00:09:42;;;;;;;21.00;13.20;;;9.00;99.90;;;;;;5071310;28;20455;-79
2022/03/28 00:12:10;;;;;;;20.60;12.73;;;9.00;99.90;;;;;;5063267;28;20456;-80
2022/03/28 00:14:37;;;;;;;21.40;14.30;;;8.90;99.90;;;;;;5059616;28;20468;-79
2022/03/28 00:17:04;;;;;;;21.60;12.93;;;8.90;99.90;;;;;;5066133;28;21051;-79
2022/03/28 00:19:31;;;;;;;22.03;13.80;;;8.90;99.90;;;;;;5063972;28;20884;-79
2022/03/28 00:21:58;;;;;;;22.60;13.20;;;8.80;99.90;;;;;;5065278;28;20858;-80
2022/03/28 00:24:26;;;;;;;20.03;12.73;;;8.80;99.90;;;;;;5077332;28;20449;-80
2022/03/28 00:26:54;;;;;;;26.47;14.13;;;8.80;99.90;;;;;;5065953;28;20553;-80
2022/03/28 00:29:21;;;;;;;20.63;12.40;;;8.70;99.90;;;;;;5077144;28;20453;-78
2022/03/28 00:31:48;;;;;;;22.07;15.50;;;8.70;99.90;;;;;;5058050;28;20447;-82
2022/03/28 00:34:21;;;;;;;25.37;14.53;;;8.70;99.90;;;;;;5055965;28;20455;-80
2022/03/28 00:36:48;;;;;;;27.50;15.03;;;8.70;99.90;;;;;;5074219;28;20874;-77
2022/03/28 00:39:16;;;;;;;25.53;13.53;;;8.70;99.90;;;;;;5072731;28;20454;-78
2022/03/28 00:41:44;;;;;;;21.17;13.30;;;8.60;99.90;;;;;;5083922;28;20488;-81
2022/03/28 00:44:11;;;;;;;23.27;13.00;;;8.60;99.90;;;;;;5082165;28;20449;-80
2022/03/28 00:46:38;;;;;;;23.80;13.57;;;8.60;99.90;;;;;;5072712;28;20499;-80
2022/03/28 00:49:04;;;;;;;21.10;13.90;;;8.50;99.90;;;;;;5083362;28;20452;-81
2022/03/28 00:51:32;;;;;;;20.30;13.07;;;8.50;99.90;;;;;;5092962;28;20519;-80
2022/03/28 00:53:59;;;;;;;19.13;12.17;;;8.50;99.90;;;;;;5071616;28;20825;-80
2022/03/28 00:56:26;;;;;;;22.20;13.30;;;8.40;99.90;;;;;;5063683;28;20495;-81
2022/03/28 00:58:55;;;;;;;23.50;13.00;;;8.40;99.90;;;;;;5057898;28;20461;-81
2022/03/28 01:01:22;;;;;;;24.13;14.97;;;8.40;99.90;;;;;;5058460;28;20539;-80
2022/03/28 01:03:49;;;;;;;21.80;12.13;;;8.30;99.90;;;;;;5063459;28;20448;-81
2022/03/28 01:06:16;;;;;;;24.33;13.97;;;8.30;99.90;;;;;;5058122;28;20828;-81
2022/03/28 01:08:42;;;;;;;23.33;12.67;;;8.30;99.90;;;;;;5058988;28;20456;-80
2022/03/28 01:11:10;;;;;;;22.07;14.00;;;8.20;99.90;;;;;;5056868;28;20454;-79
2022/03/28 01:13:38;;;;;;;23.97;14.40;;;8.20;99.90;;;;;;5056948;28;20455;-80
2022/03/28 01:16:07;;;;;;;23.40;13.97;;;8.20;99.90;;;;;;5049423;28;20502;-79
2022/03/28 01:18:33;;;;;;;25.03;14.67;;;8.20;99.90;;;;;;5074433;28;20430;-80
2022/03/28 01:21:04;;;;;;;25.07;15.00;;;8.20;99.90;;;;;;5078321;28;20487;-80
2022/03/28 01:23:31;;;;;;;24.30;14.30;;;8.10;99.90;;;;;;5078350;28;20457;-79
2022/03/28 01:25:58;;;;;;;21.03;13.67;;;8.10;99.90;;;;;;5080329;28;20842;-80
2022/03/28 01:28:27;;;;;;;23.30;14.30;;;8.10;99.90;;;;;;5073956;28;20486;-80
2022/03/28 01:30:55;;;;;;;26.00;14.20;;;8.00;99.90;;;;;;5064785;28;20460;-79
2022/03/28 01:33:22;;;;;;;21.50;14.00;;;8.00;99.90;;;;;;5064985;28;20455;-79
2022/03/28 01:35:49;;;;;;;27.00;14.07;;;8.00;99.90;;;;;;5066446;28;20481;-79
2022/03/28 01:38:19;;;;;;;22.40;14.47;;;8.00;99.90;;;;;;5064475;28;20453;-81
2022/03/28 01:40:48;;;;;;;25.07;15.00;;;7.90;99.90;;;;;;5057320;28;20511;-80
2022/03/28 01:43:16;;;;;;;29.20;15.10;;;7.90;99.90;;;;;;5043752;28;20456;-80
2022/03/28 01:45:42;;;;;;;24.43;14.40;;;7.90;99.90;;;;;;5055371;28;20485;-80
2022/03/28 01:48:11;;;;;;;24.80;14.80;;;7.90;99.90;;;;;;5062128;28;20452;-78
2022/03/28 01:50:39;;;;;;;23.00;13.70;;;7.90;99.90;;;;;;5067387;28;20448;-79
2022/03/28 01:53:06;;;;;;;23.53;14.10;;;7.80;99.90;;;;;;5068363;28;20452;-81
2022/03/28 01:55:34;;;;;;;27.10;15.47;;;7.80;99.90;;;;;;5079108;28;20453;-81
2022/03/28 01:58:01;;;;;;;22.70;13.50;;;7.80;99.90;;;;;;5095938;28;20420;-80
2022/03/28 02:00:31;;;;;;;32.10;15.03;;;7.80;99.90;;;;;;5076462;28;20457;-81
2022/03/28 02:02:58;;;;;;;24.80;15.33;;;7.80;99.90;;;;;;5063662;28;20457;-81
2022/03/28 02:05:25;;;;;;;21.90;13.43;;;7.70;99.90;;;;;;5076234;28;20460;-82
2022/03/28 02:07:52;;;;;;;22.77;13.83;;;7.70;99.90;;;;;;5075863;28;20513;-79
2022/03/28 02:10:20;;;;;;;28.17;15.33;;;7.70;99.90;;;;;;5074854;28;20480;-81
2022/03/28 02:12:49;;;;;;;25.50;14.33;;;7.70;99.90;;;;;;5072476;28;20465;-82
2022/03/28 02:15:17;;;;;;;23.50;14.13;;;7.70;99.90;;;;;;5074877;28;20454;-81
2022/03/28 02:17:44;;;;;;;25.63;14.13;;;7.70;99.90;;;;;;5067401;28;20459;-82
2022/03/28 02:20:12;;;;;;;25.43;16.23;;;7.70;99.90;;;;;;5059606;28;20452;-81
2022/03/28 02:22:40;;;;;;;21.73;14.93;;;7.60;99.90;;;;;;5056216;28;20453;-81
2022/03/28 02:25:09;;;;;;;23.47;14.03;;;7.60;99.90;;;;;;5070798;28;20461;-81
2022/03/28 02:27:36;;;;;;;24.07;14.47;;;7.60;99.90;;;;;;5076438;22;20500;-83
2022/03/28 02:30:07;;;;;;;28.10;14.67;;;7.50;99.90;;;;;;5049154;28;20457;-85
2022/03/28 02:32:34;;;;;;;25.17;14.63;;;7.50;99.90;;;;;;5053191;28;21044;-85
2022/03/28 02:35:00;;;;;;;24.67;13.90;;;7.60;99.90;;;;;;5051959;28;20455;-83
2022/03/28 02:37:27;;;;;;;30.83;15.80;;;7.50;99.90;;;;;;5045578;28;20575;-84
2022/03/28 02:39:54;;;;;;;24.40;13.53;;;7.50;99.90;;;;;;5034027;28;20449;-84
2022/03/28 02:42:22;;;;;;;28.70;15.27;;;7.50;99.90;;;;;;5034644;28;20580;-84
2022/03/28 02:44:50;;;;;;;26.97;14.37;;;7.40;99.90;;;;;;5033206;28;20486;-83
2022/03/28 02:47:19;;;;;;;26.40;14.80;;;7.40;99.90;;;;;;5034136;28;20829;-84
2022/03/28 02:49:46;;;;;;;26.57;16.90;;;7.40;99.90;;;;;;5033120;28;20453;-84
2022/03/28 02:52:13;;;;;;;26.03;15.90;;;7.40;99.90;;;;;;5033639;28;20483;-84
2022/03/28 02:54:41;;;;;;;25.77;13.70;;;7.40;99.90;;;;;;5033351;28;20453;-85
2022/03/28 02:57:07;;;;;;;22.93;13.10;;;7.40;99.90;;;;;;5020533;28;20515;-84
2022/03/28 02:59:34;;;;;;;31.90;16.67;;;7.40;99.90;;;;;;5033200;28;20535;-84
2022/03/28 03:02:02;;;;;;;26.93;15.30;;;7.40;99.90;;;;;;5034085;28;20459;-81
2022/03/28 03:04:31;;;;;;;27.67;16.67;;;7.40;99.90;;;;;;5037592;28;20580;-84
2022/03/28 03:06:58;;;;;;;27.53;13.83;;;7.30;99.90;;;;;;5039402;28;20473;-82
2022/03/28 03:09:25;;;;;;;26.07;15.20;;;7.30;99.90;;;;;;5035786;28;20475;-82
2022/03/28 03:11:51;;;;;;;24.03;15.97;;;7.30;99.90;;;;;;5039353;28;20458;-85
2022/03/28 03:14:18;;;;;;;27.13;14.77;;;7.20;99.90;;;;;;5037380;28;20457;-84
2022/03/28 03:16:45;;;;;;;28.60;16.30;;;7.20;99.90;;;;;;5037692;28;21000;-84
2022/03/28 03:19:12;;;;;;;30.73;15.43;;;7.20;99.90;;;;;;5037484;28;20976;-83
2022/03/28 03:21:40;;;;;;;29.80;15.97;;;7.20;99.90;;;;;;5043869;28;20452;-85
2022/03/28 03:24:07;;;;;;;25.13;14.90;;;7.20;99.90;;;;;;5042180;28;20450;-84
2022/03/28 03:26:34;;;;;;;26.27;14.87;;;7.10;99.90;;;;;;5043022;28;20446;-84
2022/03/28 03:29:01;;;;;;;28.20;15.03;;;7.10;99.90;;;;;;5043046;28;20945;-85
2022/03/28 03:31:28;;;;;;;27.83;14.97;;;7.00;99.90;;;;;;5041889;28;20460;-84
2022/03/28 03:33:55;;;;;;;28.37;15.97;;;7.10;99.90;;;;;;5041158;28;20480;-84
2022/03/28 03:36:22;;;;;;;28.53;15.40;;;7.00;99.90;;;;;;5041978;28;20575;-84
2022/03/28 03:38:50;;;;;;;28.13;15.20;;;7.00;99.90;;;;;;5041525;28;20458;-82
2022/03/28 03:41:16;;;;;;;26.63;15.13;;;7.00;99.90;;;;;;5040017;28;20453;-84
2022/03/28 03:43:44;;;;;;;27.37;15.97;;;7.00;99.90;;;;;;5038834;28;20466;-84
2022/03/28 03:46:11;;;;;;;28.70;15.33;;;7.00;99.90;;;;;;5039407;28;20469;-83
2022/03/28 03:48:38;;;;;;;28.60;16.67;;;6.90;99.90;;;;;;5040495;28;20484;-84
2022/03/28 03:51:05;;;;;;;28.23;17.10;;;6.90;99.90;;;;;;5040594;28;20945;-82
2022/03/28 03:53:31;;;;;;;28.50;16.27;;;6.90;99.90;;;;;;5039914;28;20528;-83
2022/03/28 03:56:00;;;;;;;29.47;16.00;;;6.80;99.90;;;;;;5039526;28;21001;-83
2022/03/28 03:58:27;;;;;;;29.70;16.13;;;6.80;99.90;;;;;;5045714;28;20484;-85
2022/03/28 04:00:54;;;;;;;25.07;15.20;;;6.80;99.90;;;;;;5036212;28;20464;-84
2022/03/28 04:03:21;;;;;;;25.10;14.40;;;6.90;99.90;;;;;;5040107;28;20454;-84
2022/03/28 04:05:48;;;;;;;30.80;15.90;;;6.80;99.90;;;;;;5040068;28;20448;-83
2022/03/28 04:08:14;;;;;;;26.20;15.23;;;6.80;99.90;;;;;;5040590;28;20467;-86
2022/03/28 04:10:42;;;;;;;27.63;17.03;;;6.80;99.90;;;;;;5038483;28;20457;-84
2022/03/28 04:13:11;;;;;;;27.90;17.10;;;6.80;99.90;;;;;;5040953;28;20460;-83
2022/03/28 04:15:38;;;;;;;22.53;13.23;;;6.70;99.90;;;;;;5043028;28;20463;-82
2022/03/28 04:18:05;;;;;;;31.43;16.73;;;6.70;99.90;;;;;;5057135;28;20501;-85
2022/03/28 04:20:32;;;;;;;29.00;17.40;;;6.70;99.90;;;;;;5056902;28;20479;-84
2022/03/28 04:22:59;;;;;;;26.77;16.20;;;6.70;99.90;;;;;;5054892;28;20488;-84
2022/03/28 04:25:26;;;;;;;30.60;17.43;;;6.70;99.90;;;;;;5046446;28;20457;-84
2022/03/28 04:27:53;;;;;;;26.40;15.53;;;6.80;99.90;;;;;;5038060;28;20511;-84
2022/03/28 04:30:21;;;;;;;24.83;14.70;;;6.70;99.90;;;;;;5056144;28;20548;-84
2022/03/28 04:32:48;;;;;;;27.53;16.07;;;6.70;99.90;;;;;;5056141;28;20449;-83
2022/03/28 04:35:15;;;;;;;30.40;15.60;;;6.70;99.90;;;;;;5047419;28;20453;-85
2022/03/28 04:37:43;;;;;;;27.07;15.57;;;6.70;99.90;;;;;;5043155;28;21041;-85
2022/03/28 04:40:12;;;;;;;29.83;17.60;;;6.70;99.90;;;;;;5043804;28;20449;-84
2022/03/28 04:42:39;;;;;;;31.70;17.57;;;6.70;99.90;;;;;;5040388;28;20464;-84
2022/03/28 04:45:07;;;;;;;30.87;17.00;;;6.60;99.90;;;;;;5041122;28;20461;-85
2022/03/28 04:47:36;;;;;;;28.07;17.03;;;6.70;99.90;;;;;;5040530;28;20472;-84
2022/03/28 04:50:04;;;;;;;31.43;17.83;;;6.70;99.90;;;;;;5033526;28;20817;-85
2022/03/28 04:52:30;;;;;;;32.07;16.80;;;6.70;99.90;;;;;;5041663;28;20962;-85
2022/03/28 04:54:57;;;;;;;27.87;15.10;;;6.60;99.90;;;;;;5044257;28;20461;-81
2022/03/28 04:57:24;;;;;;;33.13;17.50;;;6.50;99.90;;;;;;5052792;28;20497;-80
2022/03/28 04:59:51;;;;;;;29.40;15.87;;;6.60;99.90;;;;;;5052403;28;20508;-81
2022/03/28 05:02:18;;;;;;;35.50;18.33;;;6.60;99.90;;;;;;5052767;28;20452;-81
2022/03/28 05:04:46;;;;;;;29.23;17.00;;;6.50;99.90;;;;;;5052523;28;20474;-81
2022/03/28 05:07:13;;;;;;;30.60;17.07;;;6.50;99.90;;;;;;5051781;28;20453;-81
2022/03/28 05:09:40;;;;;;;27.33;16.73;;;6.50;99.90;;;;;;5051409;28;20536;-81
2022/03/28 05:12:08;;;;;;;30.20;17.90;;;6.50;99.90;;;;;;5051762;28;20524;-83
2022/03/28 05:14:35;;;;;;;30.03;16.93;;;6.50;99.90;;;;;;5050621;28;20445;-83
2022/03/28 05:17:01;;;;;;;34.80;19.60;;;6.50;99.90;;;;;;5050811;28;20480;-83
2022/03/28 05:19:28;;;;;;;33.83;19.37;;;6.50;99.90;;;;;;5051418;28;20465;-83
2022/03/28 05:21:57;;;;;;;41.37;18.37;;;6.40;99.90;;;;;;5050540;28;20466;-82
2022/03/28 05:24:23;;;;;;;34.30;16.97;;;6.40;99.90;;;;;;5050197;28;20467;-84
2022/03/28 05:26:50;;;;;;;31.17;18.53;;;6.50;99.90;;;;;;5050779;28;20843;-82
2022/03/28 05:29:18;;;;;;;28.60;17.80;;;6.50;99.90;;;;;;5050212;28;20447;-82
2022/03/28 05:31:46;;;;;;;34.07;18.77;;;6.40;99.90;;;;;;5047859;28;20865;-82
2022/03/28 05:34:12;;;;;;;32.63;16.33;;;6.50;99.90;;;;;;5051649;28;20461;-84
2022/03/28 05:36:40;;;;;;;34.37;18.23;;;6.50;99.90;;;;;;5052926;28;20504;-84
2022/03/28 05:39:09;;;;;;;30.80;17.27;;;6.50;99.90;;;;;;5050935;28;20491;-84
2022/03/28 05:41:36;;;;;;;30.30;16.43;;;6.60;99.90;;;;;;5031652;28;20457;-83
2022/03/28 05:44:03;;;;;;;35.40;18.10;;;6.60;99.90;;;;;;5044252;28;20510;-83
2022/03/28 05:46:30;;;;;;;37.60;18.10;;;6.70;99.90;;;;;;5050506;28;20450;-83
2022/03/28 05:48:57;;;;;;;30.67;18.50;;;6.80;99.90;;;;;;5049689;28;20493;-83
2022/03/28 05:51:25;;;;;;;35.47;19.33;;;6.80;99.90;;;;;;5051292;28;20456;-82
2022/03/28 05:53:53;;;;;;;29.70;17.07;;;6.80;99.90;;;;;;5050974;28;20453;-81
2022/03/28 05:56:21;;;;;;;33.07;17.37;;;6.80;99.90;;;;;;5051001;28;20490;-81
2022/03/28 05:58:48;;;;;;;35.30;18.60;;;6.80;99.90;;;;;;5051020;28;20548;-80
2022/03/28 06:01:15;;;;;;;34.77;19.70;;;6.90;99.90;;;;;;5051498;28;20452;-81
2022/03/28 06:03:42;;;;;;;31.13;19.17;;;6.90;99.90;;;;;;5050187;28;20465;-81
2022/03/28 06:06:08;;;;;;;29.23;16.33;;;7.00;99.90;;;;;;5049076;28;20539;-81
2022/03/28 06:08:36;;;;;;;32.40;18.40;;;7.00;99.90;;;;;;5048169;28;20473;-81
2022/03/28 06:11:04;;;;;;;36.40;19.63;;;7.10;99.90;;;;;;5042456;28;20461;-81
2022/03/28 06:14:32;;;;;;;36.70;17.90;;;7.30;99.90;;;;;;5149337;27;1275524;-83
2022/03/28 06:16:59;;;;;;;36.57;19.70;;;7.30;99.90;;;;;;5161052;27;20223;-82
2022/03/28 06:19:26;;;;;;;37.30;21.33;;;7.50;99.90;;;;;;5164359;27;20444;-82
2022/03/28 06:21:53;;;;;;;35.87;18.83;;;7.50;99.90;;;;;;5166260;27;20464;-82
2022/03/28 06:24:20;;;;;;;33.10;19.70;;;7.60;99.90;;;;;;5142756;27;20504;-82
2022/03/28 06:26:47;;;;;;;40.60;20.67;;;7.70;99.90;;;;;;5147099;27;20482;-82
2022/03/28 06:29:14;;;;;;;35.40;20.20;;;7.80;99.90;;;;;;5128776;28;20477;-82
2022/03/28 06:31:42;;;;;;;38.20;20.37;;;7.90;99.90;;;;;;5139931;27;20447;-82
2022/03/28 06:34:09;;;;;;;39.53;21.77;;;8.00;99.90;;;;;;5146184;27;20485;-82
2022/03/28 06:39:09;;;;;;;39.63;21.20;;;8.20;99.90;;;;;;5100031;28;20476;-82
2022/03/28 06:41:36;;;;;;;33.87;18.50;;;8.30;99.90;;;;;;5109073;28;20464;-82
2022/03/28 06:44:05;;;;;;;32.40;20.37;;;8.50;99.90;;;;;;5109407;28;20516;-81
2022/03/28 06:46:32;;;;;;;36.30;19.80;;;8.60;99.90;;;;;;5106726;28;20444;-82
2022/03/28 06:49:00;;;;;;;38.83;19.53;;;8.70;99.90;;;;;;5106531;28;20461;-83
2022/03/28 06:51:27;;;;;;;35.83;19.10;;;8.80;99.90;;;;;;5113751;28;20957;-82
2022/03/28 06:53:54;;;;;;;41.00;21.03;;;8.90;99.90;;;;;;5101431;28;20483;-82
2022/03/28 06:56:22;;;;;;;38.70;21.73;;;9.00;99.90;;;;;;5103389;28;20461;-82
2022/03/28 06:58:49;;;;;;;39.57;19.73;;;9.20;99.90;;;;;;5111341;28;20449;-83
2022/03/28 07:01:19;;;;;;;31.97;19.80;;;9.20;99.90;;;;;;5100198;28;20457;-82
2022/03/28 07:03:53;;;;;;;42.23;20.60;;;9.40;99.90;;;;;;5110240;28;20465;-82
2022/03/28 07:06:24;;;;;;;30.67;19.77;;;9.50;99.90;;;;;;5102488;28;20464;-81
2022/03/28 07:08:54;;;;;;;38.10;20.30;;;9.60;99.90;;;;;;5111630;28;20451;-81
2022/03/28 07:11:30;;;;;;;40.23;21.50;;;9.70;99.90;;;;;;5115032;28;20472;-82
2022/03/28 07:14:00;;;;;;;36.57;20.30;;;9.80;99.90;;;;;;5104238;28;20471;-82
2022/03/28 07:16:29;;;;;;;35.13;20.07;;;9.90;99.90;;;;;;5106218;28;20468;-83
2022/03/28 07:19:00;;;;;;;36.20;20.97;;;10.00;99.90;;;;;;5104790;28;20449;-82
2022/03/28 07:21:29;;;;;;;34.40;19.70;;;10.10;99.90;;;;;;5105787;28;20447;-82
2022/03/28 07:23:59;;;;;;;34.40;19.93;;;10.30;99.90;;;;;;5104853;28;20444;-81
2022/03/28 07:26:29;;;;;;;35.63;19.90;;;10.40;99.90;;;;;;5094265;28;20455;-80
2022/03/28 07:29:00;;;;;;;41.00;21.90;;;10.60;99.90;;;;;;5093703;28;20456;-80
2022/03/28 07:31:30;;;;;;;34.23;19.07;;;10.70;99.90;;;;;;5094589;28;20492;-81
2022/03/28 07:36:43;;;;;;;43.83;21.37;;;11.00;99.90;;;;;;5100674;28;20814;-80
2022/03/28 07:39:10;;;;;;;39.40;20.10;;;11.00;99.90;;;;;;5114301;28;20444;-82
2022/03/28 07:41:37;;;;;;;41.33;21.33;;;11.20;99.90;;;;;;5095742;28;20451;-81
2022/03/28 07:44:05;;;;;;;34.77;20.27;;;11.40;99.90;;;;;;5083300;28;20450;-80
2022/03/28 07:46:33;;;;;;;37.30;20.73;;;11.60;99.90;;;;;;5093803;28;20453;-82
2022/03/28 07:49:12;;;;;;;31.50;20.03;;;11.90;99.90;;;;;;5081331;28;20483;-80
2022/03/28 07:51:39;;;;;;;31.83;21.80;;;12.40;99.90;;;;;;5073037;28;20789;-82
2022/03/28 07:54:11;;;;;;;38.80;20.50;;;12.80;99.90;;;;;;5079639;28;20503;-81
2022/03/28 07:56:42;;;;;;;32.17;19.37;;;13.40;99.90;;;;;;5086705;28;20450;-82
2022/03/28 07:59:09;;;;;;;30.63;19.53;;;13.70;99.90;;;;;;5088107;28;20454;-82
2022/03/28 08:01:37;;;;;;;32.40;19.67;;;13.70;99.90;;;;;;5084366;28;20436;-80
2022/03/28 08:04:04;;;;;;;31.07;20.20;;;14.10;99.90;;;;;;5087370;28;20560;-81
2022/03/28 08:06:32;;;;;;;29.27;18.97;;;14.40;99.90;;;;;;5079918;28;20509;-80
2022/03/28 08:11:50;;;;;;;29.40;17.67;;;14.90;99.90;;;;;;5089735;28;20454;-79
2022/03/28 08:14:17;;;;;;;28.20;17.63;;;15.30;99.90;;;;;;5083171;28;20476;-80
2022/03/28 08:16:44;;;;;;;26.50;16.97;;;15.90;99.90;;;;;;5089536;28;20995;-79
2022/03/28 08:19:11;;;;;;;25.30;15.80;;;16.70;99.90;;;;;;5093420;28;20447;-81
2022/03/28 08:21:40;;;;;;;21.50;15.53;;;17.20;99.90;;;;;;5086212;28;20449;-80
2022/03/28 08:24:07;;;;;;;28.90;19.37;;;17.60;99.90;;;;;;5085648;28;21004;-81
2022/03/28 08:26:34;;;;;;;29.00;18.77;;;17.70;99.90;;;;;;5087707;28;20444;-83
2022/03/28 08:29:03;;;;;;;25.63;17.40;;;18.10;99.90;;;;;;5091779;28;20456;-83
2022/03/28 08:31:30;;;;;;;27.23;17.10;;;18.30;99.90;;;;;;5091599;28;20464;-82
2022/03/28 08:33:57;;;;;;;26.80;17.10;;;18.60;99.90;;;;;;5090869;28;20507;-84
2022/03/28 08:36:24;;;;;;;31.10;20.07;;;19.10;99.90;;;;;;5091134;28;20448;-81
2022/03/28 08:38:51;;;;;;;23.23;17.33;;;20.40;99.90;;;;;;5092359;28;21115;-81
2022/03/28 08:41:19;;;;;;;25.60;17.53;;;21.20;99.90;;;;;;5090342;28;20456;-82
2022/03/28 08:43:47;;;;;;;25.83;18.40;;;22.50;99.90;;;;;;5078699;28;20447;-82
2022/03/28 08:46:18;;;;;;;22.63;16.53;;;23.10;99.90;;;;;;5090128;28;20983;-83
2022/03/28 08:48:46;;;;;;;21.13;17.83;;;24.10;99.90;;;;;;5092565;28;20475;-80
2022/03/28 08:51:16;;;;;;;21.83;17.77;;;24.70;99.90;;;;;;5091907;28;20457;-81
2022/03/28 08:53:45;;;;;;;24.20;18.33;;;24.30;99.00;;;;;;5087833;28;20486;-81
2022/03/28 08:56:12;;;;;;;22.27;17.37;;;24.70;97.20;;;;;;5087763;28;20447;-81
2022/03/28 08:58:39;;;;;;;24.03;19.40;;;25.80;95.20;;;;;;5080867;28;20483;-81
2022/03/28 09:01:06;;;;;;;25.63;20.43;;;26.30;94.10;;;;;;5080782;28;20526;-81
2022/03/28 09:03:40;;;;;;;20.40;17.50;;;26.30;91.00;;;;;;5082695;28;20459;-81
2022/03/28 09:06:29;;;;;;;23.80;18.13;;;26.00;91.00;;;;;;5080740;28;20523;-81
2022/03/28 09:09:10;;;;;;;27.10;20.00;;;27.30;87.80;;;;;;5074732;28;20446;-81
2022/03/28 09:11:37;;;;;;;26.00;21.80;;;27.60;84.80;;;;;;5075135;28;20451;-81
2022/03/28 09:14:04;;;;;;;20.10;17.53;;;27.40;81.40;;;;;;5083168;28;20489;-80
2022/03/28 09:16:34;;;;;;;24.20;19.87;;;27.80;84.60;;;;;;5086995;28;20534;-81
2022/03/28 09:19:10;;;;;;;25.23;19.43;;;28.50;77.50;;;;;;5082340;28;20475;-81
2022/03/28 09:21:37;;;;;;;24.33;20.33;;;28.60;76.30;;;;;;5089108;28;20451;-82
2022/03/28 09:24:08;;;;;;;21.73;18.97;;;27.80;78.00;;;;;;5090714;28;20440;-82
2022/03/28 09:26:35;;;;;;;22.23;18.90;;;27.90;76.80;;;;;;5071222;28;20466;-82
2022/03/28 09:29:05;;;;;;;22.83;19.23;;;29.10;71.80;;;;;;5084558;28;20459;-81
2022/03/28 09:31:35;;;;;;;22.20;19.80;;;29.30;72.50;;;;;;5092246;28;20518;-81
2022/03/28 09:34:11;;;;;;;19.80;17.57;;;29.70;69.00;;;;;;5091253;28;20486;-82
2022/03/28 09:36:49;;;;;;;23.27;18.90;;;29.50;68.90;;;;;;5089689;28;20462;-82
2022/03/28 09:39:19;;;;;;;19.63;17.60;;;28.90;67.40;;;;;;5091623;28;20522;-82
2022/03/28 09:41:48;;;;;;;34.60;25.40;;;30.60;70.80;;;;;;5091361;28;20427;-82
2022/03/28 09:44:14;;;;;;;24.83;19.60;;;31.00;65.80;;;;;;5091214;28;20458;-81
2022/03/28 09:46:41;;;;;;;17.80;16.00;;;31.70;64.20;;;;;;5087343;28;20499;-82
2022/03/28 09:49:23;;;;;;;21.47;19.27;;;31.80;61.70;;;;;;5090531;28;20910;-81
2022/03/28 09:52:03;;;;;;;18.57;16.57;;;29.90;61.80;;;;;;5090883;28;20510;-82
2022/03/28 09:54:31;;;;;;;18.87;16.87;;;30.30;60.50;;;;;;5090410;28;20501;-81
2022/03/28 09:57:11;;;;;;;20.10;17.03;;;31.60;60.90;;;;;;5089735;28;20478;-82
2022/03/28 09:59:39;;;;;;;18.30;16.30;;;32.20;59.60;;;;;;5090185;28;20530;-82
2022/03/28 10:02:19;;;;;;;22.03;19.93;;;31.80;58.70;;;;;;5071081;28;20436;-82
2022/03/28 10:04:50;;;;;;;22.07;19.67;;;30.40;59.00;;;;;;5080845;28;20439;-81
2022/03/28 10:07:17;;;;;;;21.37;19.30;;;31.00;56.90;;;;;;5074923;28;20491;-82
2022/03/28 10:09:45;;;;;;;21.50;19.20;;;31.40;59.10;;;;;;5075846;28;20435;-82
2022/03/28 10:12:14;;;;;;;22.60;20.30;;;31.90;58.80;;;;;;5090401;28;20458;-82
2022/03/28 10:14:42;;;;;;;24.07;21.47;;;31.90;55.30;;;;;;5079608;28;20479;-82
2022/03/28 10:17:09;;;;;;;21.13;18.93;;;32.50;56.20;;;;;;5091709;28;20474;-83
2022/03/28 10:19:38;;;;;;;23.77;21.37;;;33.00;55.80;;;;;;5086446;28;20444;-83
2022/03/28 10:22:11;;;;;;;22.60;20.20;;;31.90;56.00;;;;;;5077715;28;20481;-83
2022/03/28 10:24:41;;;;;;;21.07;18.97;;;33.70;54.20;;;;;;5097333;28;20461;-83
2022/03/28 10:27:10;;;;;;;22.73;20.43;;;33.80;54.70;;;;;;5092433;28;20467;-83
2022/03/28 10:29:39;;;;;;;21.10;19.10;;;33.40;53.50;;;;;;5091841;28;20545;-84
2022/03/28 10:32:10;;;;;;;27.63;24.50;;;33.10;53.60;;;;;;5091842;28;20478;-83
2022/03/28 10:34:48;;;;;;;22.40;20.00;;;32.70;52.10;;;;;;5092035;28;20501;-83
2022/03/28 10:37:31;;;;;;;23.50;20.37;;;33.10;55.40;;;;;;5092550;28;20537;-83
2022/03/28 10:40:22;;;;;;;26.27;22.60;;;33.90;53.30;;;;;;5084765;28;20462;-83
2022/03/28 10:42:52;;;;;;;25.10;21.50;;;33.00;53.60;;;;;;5092328;28;20449;-84
2022/03/28 10:45:21;;;;;;;24.43;22.03;;;33.90;53.20;;;;;;5092230;28;20443;-83
2022/03/28 10:47:52;;;;;;;26.33;23.73;;;33.20;52.40;;;;;;5089031;28;20466;-84
2022/03/28 10:50:28;;;;;;;27.50;24.60;;;32.70;52.30;;;;;;5087198;28;20460;-83
2022/03/28 10:53:15;;;;;;;25.80;23.10;;;32.00;52.50;;;;;;5086228;28;20471;-83
2022/03/28 10:55:51;;;;;;;24.30;21.50;;;31.40;54.50;;;;;;5085383;28;20459;-83
2022/03/28 10:58:23;;;;;;;23.37;20.93;;;32.80;52.80;;;;;;5083064;28;20458;-84
2022/03/28 11:01:20;;;;;;;22.60;20.17;;;33.60;51.80;;;;;;5085925;28;20547;-84
2022/03/28 11:03:53;;;;;;;25.97;21.47;;;33.70;51.60;;;;;;5083776;28;20435;-84
2022/03/28 11:06:22;;;;;;;28.47;24.93;;;34.00;52.30;;;;;;5088195;28;20450;-82
2022/03/28 11:09:01;;;;;;;24.77;21.60;;;32.70;50.10;;;;;;5090607;28;20479;-82
2022/03/28 11:11:33;;;;;;;24.77;22.17;;;32.60;51.80;;;;;;5089787;28;20489;-84
2022/03/28 11:14:05;;;;;;;20.97;18.87;;;33.90;52.00;;;;;;5088115;28;20467;-84
2022/03/28 11:16:41;;;;;;;25.40;22.53;;;35.40;51.00;;;;;;5090619;28;20444;-85
2022/03/28 11:19:25;;;;;;;24.00;21.47;;;35.30;49.30;;;;;;5094228;28;20439;-84
2022/03/28 11:22:09;;;;;;;22.70;20.30;;;33.80;48.70;;;;;;5095619;28;20466;-85
2022/03/28 11:25:01;;;;;;;23.90;21.60;;;34.50;50.60;;;;;;5095213;28;20446;-84
2022/03/28 11:27:31;;;;;;;24.93;22.23;;;35.10;48.90;;;;;;5077343;28;20490;-83
2022/03/28 11:30:03;;;;;;;21.67;19.37;;;34.60;48.30;;;;;;5093076;28;20478;-84
2022/03/28 11:32:32;;;;;;;22.83;20.53;;;35.70;48.80;;;;;;5095592;28;20494;-85
2022/03/28 11:35:00;;;;;;;25.10;22.50;;;35.20;49.00;;;;;;5107937;28;20476;-85
2022/03/28 11:37:29;;;;;;;22.47;20.27;;;34.60;49.90;;;;;;5101065;28;20548;-84
2022/03/28 11:39:58;;;;;;;24.20;21.60;;;35.90;48.80;;;;;;5093438;28;20446;-84
2022/03/28 11:42:28;;;;;;;26.30;22.70;;;36.20;49.00;;;;;;5104218;28;20461;-84
2022/03/28 11:44:56;;;;;;;23.83;21.53;;;34.70;47.60;;;;;;5096910;28;20513;-83
2022/03/28 11:47:23;;;;;;;25.90;23.33;;;34.80;49.80;;;;;;5091937;28;20475;-83
2022/03/28 11:49:57;;;;;;;22.40;20.13;;;34.60;46.40;;;;;;5091093;28;20444;-83
2022/03/28 11:52:26;;;;;;;20.60;18.43;;;34.90;46.80;;;;;;5079925;28;20493;-83
2022/03/28 11:54:53;;;;;;;21.83;19.63;;;34.70;48.80;;;;;;5084950;28;20453;-84
2022/03/28 12:00:17;;;;;;;26.60;22.40;;;34.90;47.80;;;;;;5099636;28;20445;-83
2022/03/28 12:02:51;;;;;;;20.93;18.83;;;35.50;48.30;;;;;;5095023;28;20431;-83
2022/03/28 12:05:28;;;;;;;23.80;20.80;;;36.40;48.80;;;;;;5094334;28;20483;-84
2022/03/28 12:07:56;;;;;;;21.20;18.17;;;36.70;47.40;;;;;;5093594;28;20478;-83
2022/03/28 12:10:25;;;;;;;24.03;21.63;;;37.70;46.10;;;;;;5093864;28;20432;-83
2022/03/28 12:12:54;;;;;;;24.53;22.03;;;37.80;44.60;;;;;;5094021;28;20482;-82
2022/03/28 12:15:25;;;;;;;23.37;21.07;;;36.50;44.50;;;;;;5095243;28;20530;-84
2022/03/28 12:17:53;;;;;;;21.90;19.73;;;36.80;45.00;;;;;;5094024;28;20523;-84
2022/03/28 12:20:23;;;;;;;25.13;21.33;;;36.40;45.40;;;;;;5094604;28;20462;-84
2022/03/28 12:22:50;;;;;;;26.30;23.70;;;36.80;46.00;;;;;;5093466;28;20447;-83
2022/03/28 12:25:30;;;;;;;24.87;22.50;;;36.10;44.90;;;;;;5089816;28;20475;-83
2022/03/28 12:28:00;;;;;;;25.47;22.73;;;34.90;45.80;;;;;;5096277;28;20472;-83
2022/03/28 12:30:33;;;;;;;21.57;19.27;;;34.70;45.40;;;;;;5112030;28;20510;-83
2022/03/28 12:33:12;;;;;;;20.67;18.57;;;35.90;46.80;;;;;;5093248;28;20443;-82
2022/03/28 12:35:42;;;;;;;25.73;21.63;;;36.40;46.50;;;;;;5090159;28;20453;-83
2022/03/28 12:38:11;;;;;;;24.90;22.57;;;35.90;44.80;;;;;;5112136;22;20498;-82
2022/03/28 12:40:40;;;;;;;21.30;18.80;;;36.40;45.00;;;;;;5076340;28;20457;-83
2022/03/28 12:43:08;;;;;;;33.60;21.30;;;35.60;45.60;;;;;;5075850;28;20456;-84
2022/03/28 12:45:35;;;;;;;24.30;21.73;;;36.30;44.30;;;;;;5063992;28;20487;-81
2022/03/28 12:48:05;;;;;;;22.37;20.27;;;36.00;43.40;;;;;;5080477;28;20475;-83
2022/03/28 12:50:34;;;;;;;20.57;18.57;;;36.60;44.50;;;;;;5073403;28;20467;-84
2022/03/28 12:53:15;;;;;;;22.10;19.90;;;37.00;44.90;;;;;;5055645;28;20464;-83
2022/03/28 12:55:44;;;;;;;19.77;17.70;;;38.00;44.30;;;;;;5061195;28;20451;-84